createdAt,value
2016-12-14T00:00:12.356Z,17.25
2016-12-14T00:01:12.297Z,17.25
2016-12-14T00:02:12.549Z,17.26
2016-12-14T00:03:12.058Z,17.25
2016-12-14T00:04:12.350Z,17.25
2016-12-14T00:05:13.479Z,17.25
2016-12-14T00:06:14.361Z,17.25
2016-12-14T00:07:13.090Z,17.25
2016-12-14T00:08:12.293Z,17.73
2016-12-14T00:09:13.070Z,17.28
2016-12-14T00:10:13.910Z,17.26
2016-12-14T00:11:12.243Z,17.25
2016-12-14T00:12:13.333Z,17.26
2016-12-14T00:13:14.200Z,17.25
2016-12-14T00:14:12.342Z,17.25
2016-12-14T00:15:13.029Z,17.28
2016-12-14T00:16:12.858Z,17.25
2016-12-14T00:17:12.295Z,17.25
2016-12-14T00:18:12.940Z,17.25
2016-12-14T00:19:12.376Z,17.25
2016-12-14T00:20:12.923Z,17.28
2016-12-14T00:21:13.948Z,17.24
2016-12-14T00:22:12.534Z,17.25
2016-12-14T00:23:11.131Z,17.25
2016-12-14T00:24:13.039Z,17.28
2016-12-14T00:25:12.327Z,17.25
2016-12-14T00:26:13.939Z,17.26
2016-12-14T00:27:12.307Z,17.25
2016-12-14T00:28:11.591Z,17.25
2016-12-14T00:29:12.074Z,17.25
2016-12-14T00:30:12.761Z,17.30
2016-12-14T00:31:13.559Z,17.25
2016-12-14T00:32:10.017Z,17.24
2016-12-14T00:33:13.244Z,17.25
2016-12-14T00:34:14.190Z,17.24
2016-12-14T00:35:12.361Z,17.25
2016-12-14T00:36:10.480Z,17.24
2016-12-14T00:37:12.619Z,17.24
2016-12-14T00:38:13.672Z,17.24
2016-12-14T00:39:11.796Z,17.25
2016-12-14T00:40:13.013Z,17.26
2016-12-14T00:41:13.115Z,17.27
2016-12-14T00:42:12.409Z,17.24
2016-12-14T00:43:11.160Z,17.25
2016-12-14T00:44:13.160Z,17.25
2016-12-14T00:45:12.241Z,17.25
2016-12-14T00:46:12.368Z,17.25
2016-12-14T00:47:13.061Z,17.24
2016-12-14T00:48:13.035Z,17.24
2016-12-14T00:49:14.051Z,17.24
2016-12-14T00:50:12.271Z,17.24
2016-12-14T00:51:12.800Z,17.24
2016-12-14T00:52:12.501Z,17.26
2016-12-14T00:53:12.988Z,17.30
2016-12-14T00:54:12.384Z,17.24
2016-12-14T00:55:14.224Z,17.24
2016-12-14T00:56:13.055Z,17.26
2016-12-14T00:57:10.153Z,17.23
2016-12-14T00:58:12.484Z,17.73
2016-12-14T00:59:12.638Z,17.77
2016-12-14T01:00:14.621Z,17.77
2016-12-14T01:01:13.888Z,17.78
2016-12-14T01:02:13.129Z,17.30
2016-12-14T01:03:13.974Z,17.28
2016-12-14T01:04:14.047Z,17.25
2016-12-14T01:05:09.550Z,17.24
2016-12-14T01:06:12.648Z,17.24
2016-12-14T01:07:15.438Z,17.23
2016-12-14T01:08:12.307Z,17.24
2016-12-14T01:09:15.265Z,17.25
2016-12-14T01:10:14.767Z,17.23
2016-12-14T01:11:16.360Z,17.23
2016-12-14T01:12:14.087Z,17.23
2016-12-14T01:13:09.307Z,17.23
2016-12-14T01:14:15.099Z,17.23
2016-12-14T01:15:13.986Z,17.23
2016-12-14T01:16:13.191Z,17.23
2016-12-14T01:17:12.332Z,17.23
2016-12-14T01:18:15.263Z,17.24
2016-12-14T01:19:12.340Z,17.22
2016-12-14T01:20:14.005Z,17.22
2016-12-14T01:21:13.541Z,17.22
2016-12-14T01:22:12.699Z,17.22
2016-12-14T01:23:14.049Z,17.21
2016-12-14T01:24:16.165Z,17.23
2016-12-14T01:25:13.023Z,17.22
2016-12-14T01:26:13.525Z,17.22
2016-12-14T01:27:13.574Z,17.22
2016-12-14T01:28:12.540Z,17.23
2016-12-14T01:29:13.465Z,17.22
2016-12-14T01:30:12.249Z,17.21
2016-12-14T01:31:12.487Z,17.23
2016-12-14T01:32:12.480Z,17.25
2016-12-14T01:33:13.068Z,17.22
2016-12-14T01:34:11.168Z,17.21
2016-12-14T01:35:13.366Z,17.72
2016-12-14T01:36:11.670Z,17.75
2016-12-14T01:37:12.391Z,17.30
2016-12-14T01:38:12.932Z,17.30
2016-12-14T01:39:12.371Z,17.24
2016-12-14T01:40:12.902Z,17.24
2016-12-14T01:41:12.744Z,17.26
2016-12-14T01:42:12.699Z,17.25
2016-12-14T01:43:09.948Z,17.23
2016-12-14T01:44:12.418Z,17.23
2016-12-14T01:45:12.639Z,17.23
2016-12-14T01:46:13.175Z,17.23
2016-12-14T01:47:13.906Z,17.23
2016-12-14T01:48:12.307Z,17.23
2016-12-14T01:49:09.778Z,17.22
2016-12-14T01:50:12.254Z,17.23
2016-12-14T01:51:14.640Z,17.23
2016-12-14T01:52:11.974Z,17.23
2016-12-14T01:53:12.196Z,17.22
2016-12-14T01:54:12.479Z,17.22
2016-12-14T01:55:13.297Z,17.22
2016-12-14T01:56:16.254Z,17.22
2016-12-14T01:57:12.802Z,17.26
2016-12-14T01:58:10.765Z,17.21
2016-12-14T01:59:12.806Z,17.71
2016-12-14T02:00:12.278Z,17.74
2016-12-14T02:01:10.517Z,17.76
2016-12-14T02:02:12.483Z,17.77
2016-12-14T02:03:13.258Z,17.77
2016-12-14T02:04:12.525Z,17.78
2016-12-14T02:05:13.353Z,17.77
2016-12-14T02:06:12.696Z,17.77
2016-12-14T02:07:12.709Z,17.78
2016-12-14T02:08:11.847Z,17.77
2016-12-14T02:09:12.351Z,17.47
2016-12-14T02:10:13.312Z,17.33
2016-12-14T02:11:14.607Z,17.39
2016-12-14T02:12:12.653Z,17.27
2016-12-14T02:13:09.438Z,17.25
2016-12-14T02:14:13.388Z,17.24
2016-12-14T02:15:11.447Z,17.23
2016-12-14T02:16:13.083Z,17.23
2016-12-14T02:17:13.267Z,17.23
2016-12-14T02:18:12.460Z,17.24
2016-12-14T02:19:13.988Z,17.23
2016-12-14T02:20:12.713Z,17.25
2016-12-14T02:21:12.756Z,17.23
2016-12-14T02:22:12.697Z,17.23
2016-12-14T02:23:11.987Z,17.23
2016-12-14T02:24:14.236Z,17.23
2016-12-14T02:25:13.206Z,17.23
2016-12-14T02:26:14.875Z,17.23
2016-12-14T02:27:12.208Z,17.23
2016-12-14T02:28:14.155Z,17.24
2016-12-14T02:29:13.621Z,17.23
2016-12-14T02:30:13.067Z,17.27
2016-12-14T02:31:12.323Z,17.73
2016-12-14T02:32:18.105Z,17.78
2016-12-14T02:33:12.500Z,17.78
2016-12-14T02:34:13.397Z,17.78
2016-12-14T02:35:13.232Z,17.81
2016-12-14T02:36:13.045Z,17.31
2016-12-14T02:37:12.926Z,17.28
2016-12-14T02:38:12.915Z,17.26
2016-12-14T02:39:12.452Z,17.27
2016-12-14T02:40:13.447Z,17.26
2016-12-14T02:41:15.019Z,17.25
2016-12-14T02:42:12.624Z,17.28
2016-12-14T02:43:12.678Z,17.25
2016-12-14T02:44:12.092Z,17.25
2016-12-14T02:45:13.018Z,17.25
2016-12-14T02:46:12.706Z,17.33
2016-12-14T02:47:13.495Z,17.74
2016-12-14T02:48:12.607Z,17.76
2016-12-14T02:49:12.885Z,17.42
2016-12-14T02:50:12.698Z,17.31
2016-12-14T02:51:13.783Z,17.27
2016-12-14T02:52:12.473Z,17.26
2016-12-14T02:53:13.253Z,17.26
2016-12-14T02:54:13.335Z,17.25
2016-12-14T02:55:12.465Z,17.25
2016-12-14T02:56:14.696Z,17.26
2016-12-14T02:57:12.857Z,17.25
2016-12-14T02:58:12.624Z,17.27
2016-12-14T02:59:12.010Z,17.26
2016-12-14T03:00:12.776Z,17.25
2016-12-14T03:01:15.236Z,17.24
2016-12-14T03:02:13.135Z,17.25
2016-12-14T03:03:12.407Z,17.25
2016-12-14T03:04:11.372Z,17.24
2016-12-14T03:05:12.492Z,17.25
2016-12-14T03:06:13.208Z,17.25
2016-12-14T03:07:13.753Z,17.25
2016-12-14T03:08:10.558Z,17.25
2016-12-14T03:09:12.844Z,17.25
2016-12-14T03:10:13.452Z,17.24
2016-12-14T03:11:13.485Z,17.27
2016-12-14T03:12:14.093Z,17.25
2016-12-14T03:13:10.820Z,17.25
2016-12-14T03:14:12.258Z,17.25
2016-12-14T03:15:13.218Z,17.25
2016-12-14T03:16:14.225Z,17.24
2016-12-14T03:17:14.584Z,17.25
2016-12-14T03:18:12.136Z,17.25
2016-12-14T03:19:13.113Z,17.25
2016-12-14T03:20:12.817Z,17.32
2016-12-14T03:21:13.197Z,17.26
2016-12-14T03:22:12.417Z,17.25
2016-12-14T03:23:13.065Z,17.25
2016-12-14T03:24:12.239Z,17.25
2016-12-14T03:25:13.181Z,17.25
2016-12-14T03:26:13.769Z,17.25
2016-12-14T03:27:11.975Z,17.25
2016-12-14T03:28:13.447Z,17.25
2016-12-14T03:29:10.579Z,17.25
2016-12-14T03:30:13.174Z,17.75
2016-12-14T03:31:12.628Z,17.78
2016-12-14T03:32:10.046Z,17.30
2016-12-14T03:33:13.083Z,17.28
2016-12-14T03:34:09.646Z,17.25
2016-12-14T03:35:12.796Z,17.25
2016-12-14T03:36:12.928Z,17.25
2016-12-14T03:37:12.835Z,17.24
2016-12-14T03:38:12.553Z,17.30
2016-12-14T03:39:13.103Z,17.24
2016-12-14T03:40:13.348Z,17.24
2016-12-14T03:41:12.169Z,17.23
2016-12-14T03:42:13.009Z,17.27
2016-12-14T03:43:09.321Z,17.23
2016-12-14T03:44:12.949Z,17.30
2016-12-14T03:45:12.636Z,17.27
2016-12-14T03:46:12.531Z,17.25
2016-12-14T03:47:12.767Z,17.24
2016-12-14T03:48:12.555Z,17.27
2016-12-14T03:49:12.666Z,17.24
2016-12-14T03:50:13.417Z,17.24
2016-12-14T03:51:12.523Z,17.23
2016-12-14T03:52:12.782Z,17.24
2016-12-14T03:53:14.713Z,17.24
2016-12-14T03:54:12.273Z,17.25
2016-12-14T03:55:12.888Z,17.29
2016-12-14T03:56:13.133Z,17.23
2016-12-14T03:57:12.568Z,17.23
2016-12-14T03:58:12.158Z,17.24
2016-12-14T03:59:14.665Z,17.24
2016-12-14T04:00:13.066Z,17.28
2016-12-14T04:01:12.739Z,17.24
2016-12-14T04:02:13.341Z,17.26
2016-12-14T04:03:11.246Z,17.23
2016-12-14T04:04:13.147Z,17.72
2016-12-14T04:05:12.811Z,17.75
2016-12-14T04:06:12.151Z,17.29
2016-12-14T04:07:13.265Z,17.26
2016-12-14T04:08:12.614Z,17.25
2016-12-14T04:09:10.894Z,17.23
2016-12-14T04:10:13.331Z,17.24
2016-12-14T04:11:14.324Z,17.24
2016-12-14T04:12:12.698Z,17.24
2016-12-14T04:13:12.873Z,17.23
2016-12-14T04:14:12.323Z,17.24
2016-12-14T04:15:12.981Z,17.27
2016-12-14T04:16:09.598Z,17.23
2016-12-14T04:17:12.594Z,17.25
2016-12-14T04:18:13.674Z,17.23
2016-12-14T04:19:12.137Z,17.23
2016-12-14T04:20:12.753Z,17.27
2016-12-14T04:21:13.836Z,17.23
2016-12-14T04:22:09.397Z,17.22
2016-12-14T04:23:13.008Z,17.23
2016-12-14T04:24:12.686Z,17.26
2016-12-14T04:25:12.526Z,17.27
2016-12-14T04:26:14.111Z,17.24
2016-12-14T04:27:13.015Z,17.24
2016-12-14T04:28:13.121Z,17.24
2016-12-14T04:29:09.841Z,17.24
2016-12-14T04:30:10.889Z,17.24
2016-12-14T04:31:12.923Z,17.73
2016-12-14T04:32:13.472Z,17.76
2016-12-14T04:33:11.115Z,17.29
2016-12-14T04:34:12.828Z,17.26
2016-12-14T04:35:12.397Z,17.26
2016-12-14T04:36:13.976Z,17.29
2016-12-14T04:37:12.077Z,17.25
2016-12-14T04:38:12.319Z,17.25
2016-12-14T04:39:12.459Z,17.25
2016-12-14T04:40:14.007Z,17.24
2016-12-14T04:41:13.617Z,17.25
2016-12-14T04:42:12.348Z,17.25
2016-12-14T04:43:12.607Z,17.24
2016-12-14T04:44:10.033Z,17.24
2016-12-14T04:45:12.468Z,17.25
2016-12-14T04:46:11.028Z,17.25
2016-12-14T04:47:14.226Z,17.25
2016-12-14T04:48:13.448Z,17.25
2016-12-14T04:49:12.537Z,17.26
2016-12-14T04:50:12.738Z,17.26
2016-12-14T04:51:13.436Z,17.26
2016-12-14T04:52:13.165Z,17.31
2016-12-14T04:53:12.374Z,17.25
2016-12-14T04:54:13.496Z,17.25
2016-12-14T04:55:14.185Z,17.25
2016-12-14T04:56:13.507Z,17.25
2016-12-14T04:57:10.978Z,17.25
2016-12-14T04:58:12.983Z,17.33
2016-12-14T04:59:13.867Z,17.73
2016-12-14T05:00:13.785Z,17.29
2016-12-14T05:01:12.871Z,17.28
2016-12-14T05:02:12.675Z,17.28
2016-12-14T05:03:10.983Z,17.26
2016-12-14T05:04:13.353Z,17.25
2016-12-14T05:05:13.135Z,17.25
2016-12-14T05:06:11.158Z,17.25
2016-12-14T05:07:13.566Z,17.25
2016-12-14T05:08:11.225Z,17.25
2016-12-14T05:09:11.948Z,17.26
2016-12-14T05:10:12.458Z,17.27
2016-12-14T05:11:12.826Z,17.28
2016-12-14T05:12:12.746Z,17.28
2016-12-14T05:13:09.524Z,17.27
2016-12-14T05:14:13.741Z,17.27
2016-12-14T05:15:12.524Z,17.29
2016-12-14T05:16:11.718Z,17.27
2016-12-14T05:17:13.315Z,17.27
2016-12-14T05:18:12.573Z,17.26
2016-12-14T05:19:12.456Z,17.29
2016-12-14T05:20:13.733Z,17.27
2016-12-14T05:21:12.839Z,17.28
2016-12-14T05:22:12.645Z,17.31
2016-12-14T05:23:12.325Z,17.27
2016-12-14T05:24:12.435Z,17.28
2016-12-14T05:25:16.530Z,17.27
2016-12-14T05:26:13.178Z,17.75
2016-12-14T05:27:12.707Z,17.49
2016-12-14T05:28:12.628Z,17.33
2016-12-14T05:29:11.864Z,17.30
2016-12-14T05:30:13.009Z,17.29
2016-12-14T05:31:13.464Z,17.29
2016-12-14T05:32:12.612Z,17.29
2016-12-14T05:33:12.013Z,17.28
2016-12-14T05:34:13.703Z,17.28
2016-12-14T05:35:14.622Z,17.28
2016-12-14T05:36:13.221Z,17.35
2016-12-14T05:37:12.981Z,17.28
2016-12-14T05:38:12.781Z,17.31
2016-12-14T05:39:12.032Z,17.28
2016-12-14T05:40:13.345Z,17.29
2016-12-14T05:41:13.483Z,17.28
2016-12-14T05:42:12.694Z,17.28
2016-12-14T05:43:13.923Z,17.28
2016-12-14T05:44:13.233Z,17.28
2016-12-14T05:45:14.732Z,17.28
2016-12-14T05:46:12.413Z,17.27
2016-12-14T05:47:12.004Z,17.28
2016-12-14T05:48:10.131Z,17.26
2016-12-14T05:49:12.747Z,17.27
2016-12-14T05:50:13.406Z,17.32
2016-12-14T05:51:13.155Z,17.29
2016-12-14T05:52:10.303Z,17.29
2016-12-14T05:53:13.546Z,17.30
2016-12-14T05:54:12.764Z,17.31
2016-12-14T05:55:17.493Z,17.31
2016-12-14T05:56:13.194Z,17.30
2016-12-14T05:57:13.803Z,17.79
2016-12-14T05:58:12.975Z,17.83
2016-12-14T05:59:12.401Z,17.85
2016-12-14T06:00:13.302Z,17.84
2016-12-14T06:01:12.402Z,17.83
2016-12-14T06:02:12.474Z,17.50
2016-12-14T06:03:12.729Z,17.35
2016-12-14T06:04:12.216Z,17.31
2016-12-14T06:05:13.378Z,17.29
2016-12-14T06:06:12.633Z,17.28
2016-12-14T06:07:12.167Z,17.27
2016-12-14T06:08:13.581Z,17.26
2016-12-14T06:09:12.688Z,17.27
2016-12-14T06:10:12.311Z,17.26
2016-12-14T06:11:12.338Z,17.25
2016-12-14T06:12:12.513Z,17.73
2016-12-14T06:13:13.479Z,17.77
2016-12-14T06:14:12.819Z,17.47
2016-12-14T06:15:12.816Z,17.32
2016-12-14T06:16:11.107Z,17.28
2016-12-14T06:17:13.113Z,17.45
2016-12-14T06:18:11.363Z,17.29
2016-12-14T06:19:14.282Z,17.26
2016-12-14T06:20:12.610Z,17.25
2016-12-14T06:21:14.679Z,17.25
2016-12-14T06:22:12.016Z,17.26
2016-12-14T06:23:12.701Z,17.27
2016-12-14T06:24:09.803Z,17.25
2016-12-14T06:25:13.325Z,17.27
2016-12-14T06:26:13.685Z,17.25
2016-12-14T06:27:12.476Z,17.24
2016-12-14T06:28:13.230Z,17.25
2016-12-14T06:29:12.547Z,17.24
2016-12-14T06:30:12.218Z,17.26
2016-12-14T06:31:13.005Z,17.28
2016-12-14T06:32:11.137Z,17.25
2016-12-14T06:33:12.973Z,17.73
2016-12-14T06:34:12.865Z,17.42
2016-12-14T06:35:12.351Z,17.28
2016-12-14T06:36:12.719Z,17.25
2016-12-14T06:37:12.824Z,17.24
2016-12-14T06:38:12.405Z,17.24
2016-12-14T06:39:10.876Z,17.24
2016-12-14T06:40:13.613Z,17.23
2016-12-14T06:41:12.854Z,17.23
2016-12-14T06:42:12.851Z,17.23
2016-12-14T06:43:12.916Z,17.24
2016-12-14T06:44:12.294Z,17.27
2016-12-14T06:45:13.082Z,17.28
2016-12-14T06:46:12.762Z,17.32
2016-12-14T06:47:12.226Z,17.27
2016-12-14T06:48:12.627Z,17.28
2016-12-14T06:49:12.555Z,17.35
2016-12-14T06:50:12.504Z,17.28
2016-12-14T06:51:13.631Z,17.28
2016-12-14T06:52:13.908Z,17.28
2016-12-14T06:53:12.443Z,17.29
2016-12-14T06:54:12.473Z,17.28
2016-12-14T06:55:12.429Z,17.29
2016-12-14T06:56:13.587Z,17.29
2016-12-14T06:57:12.517Z,17.29
2016-12-14T06:58:13.190Z,17.29
2016-12-14T06:59:10.534Z,17.77
2016-12-14T07:00:12.467Z,17.39
2016-12-14T07:01:12.655Z,17.30
2016-12-14T07:02:13.532Z,17.29
2016-12-14T07:03:14.155Z,17.29
2016-12-14T07:04:12.833Z,17.32
2016-12-14T07:05:12.312Z,17.28
2016-12-14T07:06:11.104Z,17.28
2016-12-14T07:07:13.324Z,17.28
2016-12-14T07:08:13.242Z,17.28
2016-12-14T07:09:13.071Z,17.36
2016-12-14T07:10:13.974Z,17.77
2016-12-14T07:11:13.142Z,17.30
2016-12-14T07:12:12.945Z,17.24
2016-12-14T07:13:12.437Z,17.21
2016-12-14T07:14:10.896Z,17.18
2016-12-14T07:15:13.409Z,17.18
2016-12-14T07:16:13.254Z,17.23
2016-12-14T07:17:12.502Z,17.19
2016-12-14T07:18:13.016Z,17.27
2016-12-14T07:19:12.736Z,17.25
2016-12-14T07:20:12.533Z,17.22
2016-12-14T07:21:12.615Z,17.23
2016-12-14T07:22:12.519Z,17.23
2016-12-14T07:23:11.591Z,17.23
2016-12-14T07:24:14.545Z,17.24
2016-12-14T07:25:11.243Z,17.24
2016-12-14T07:26:14.339Z,17.74
2016-12-14T07:27:12.512Z,17.79
2016-12-14T07:28:14.569Z,17.82
2016-12-14T07:29:11.506Z,17.83
2016-12-14T07:30:11.641Z,17.82
2016-12-14T07:31:12.136Z,17.52
2016-12-14T07:32:13.141Z,17.36
2016-12-14T07:33:12.857Z,17.32
2016-12-14T07:34:12.488Z,17.31
2016-12-14T07:35:13.289Z,17.29
2016-12-14T07:36:14.086Z,16.37
2016-12-14T07:37:12.399Z,15.52
2016-12-14T07:38:14.154Z,14.73
2016-12-14T07:39:12.324Z,14.22
2016-12-14T07:40:13.111Z,14.44
2016-12-14T07:41:14.146Z,14.83
2016-12-14T07:42:18.358Z,15.22
2016-12-14T07:43:11.395Z,15.43
2016-12-14T07:44:13.437Z,15.68
2016-12-14T07:45:13.558Z,15.90
2016-12-14T07:46:13.338Z,16.07
2016-12-14T07:47:11.108Z,16.19
2016-12-14T07:48:12.382Z,16.33
2016-12-14T07:49:12.448Z,16.40
2016-12-14T07:50:10.983Z,16.47
2016-12-14T07:51:12.534Z,16.55
2016-12-14T07:52:12.824Z,16.61
2016-12-14T07:53:12.593Z,16.65
2016-12-14T07:54:12.237Z,16.70
2016-12-14T07:55:12.897Z,16.76
2016-12-14T07:56:14.319Z,16.77
2016-12-14T07:57:11.186Z,16.79
2016-12-14T07:58:12.663Z,16.83
2016-12-14T07:59:11.994Z,16.85
2016-12-14T08:00:13.072Z,16.87
2016-12-14T08:01:12.634Z,16.90
2016-12-14T08:02:12.499Z,16.94
2016-12-14T08:03:13.239Z,17.00
2016-12-14T08:04:11.347Z,16.93
2016-12-14T08:05:12.721Z,17.45
2016-12-14T08:06:12.306Z,17.50
2016-12-14T08:07:12.661Z,17.04
2016-12-14T08:08:13.769Z,17.02
2016-12-14T08:09:12.033Z,17.02
2016-12-14T08:10:14.866Z,17.02
2016-12-14T08:11:13.266Z,17.03
2016-12-14T08:12:13.295Z,17.04
2016-12-14T08:13:12.627Z,17.04
2016-12-14T08:14:12.078Z,17.04
2016-12-14T08:15:12.859Z,17.05
2016-12-14T08:16:12.357Z,17.06
2016-12-14T08:17:13.127Z,17.10
2016-12-14T08:18:10.428Z,17.06
2016-12-14T08:19:09.838Z,17.07
2016-12-14T08:20:14.808Z,17.08
2016-12-14T08:21:12.229Z,17.09
2016-12-14T08:22:12.597Z,17.10
2016-12-14T08:23:12.163Z,17.10
2016-12-14T08:24:13.025Z,17.09
2016-12-14T08:25:12.838Z,17.09
2016-12-14T08:26:13.214Z,17.10
2016-12-14T08:27:12.993Z,17.10
2016-12-14T08:28:13.194Z,17.11
2016-12-14T08:29:11.326Z,17.11
2016-12-14T08:30:12.548Z,17.11
2016-12-14T08:31:13.275Z,17.11
2016-12-14T08:32:13.905Z,17.11
2016-12-14T08:33:13.034Z,17.11
2016-12-14T08:34:12.765Z,17.12
2016-12-14T08:35:12.538Z,17.17
2016-12-14T08:36:12.628Z,17.12
2016-12-14T08:37:12.075Z,17.13
2016-12-14T08:38:13.292Z,17.13
2016-12-14T08:39:10.528Z,17.12
2016-12-14T08:40:12.405Z,17.14
2016-12-14T08:41:14.238Z,17.63
2016-12-14T08:42:09.907Z,17.67
2016-12-14T08:43:13.021Z,17.68
2016-12-14T08:44:12.522Z,17.68
2016-12-14T08:45:12.753Z,17.70
2016-12-14T08:46:12.556Z,17.70
2016-12-14T08:47:12.793Z,17.70
2016-12-14T08:48:13.751Z,17.72
2016-12-14T08:49:12.539Z,17.71
2016-12-14T08:50:12.175Z,17.71
2016-12-14T08:51:12.295Z,17.71
2016-12-14T08:52:12.783Z,17.71
2016-12-14T08:53:12.105Z,17.73
2016-12-14T08:54:12.522Z,17.72
2016-12-14T08:55:13.079Z,17.72
2016-12-14T08:56:13.468Z,17.72
2016-12-14T08:57:13.229Z,17.72
2016-12-14T08:58:12.593Z,17.73
2016-12-14T08:59:12.803Z,17.72
2016-12-14T09:00:12.339Z,17.73
2016-12-14T09:01:14.265Z,17.24
2016-12-14T09:02:12.940Z,17.21
2016-12-14T09:03:12.163Z,17.19
2016-12-14T09:04:11.294Z,17.18
2016-12-14T09:05:12.498Z,17.18
2016-12-14T09:06:12.799Z,17.19
2016-12-14T09:07:12.138Z,17.18
2016-12-14T09:08:12.945Z,17.19
2016-12-14T09:09:12.640Z,17.18
2016-12-14T09:10:12.865Z,17.19
2016-12-14T09:11:13.205Z,17.20
2016-12-14T09:12:14.434Z,17.19
2016-12-14T09:13:13.028Z,17.24
2016-12-14T09:14:12.413Z,17.19
2016-12-14T09:15:12.812Z,17.19
2016-12-14T09:16:14.065Z,17.19
2016-12-14T09:17:13.104Z,17.20
2016-12-14T09:18:12.890Z,17.19
2016-12-14T09:19:12.690Z,17.21
2016-12-14T09:20:12.439Z,17.23
2016-12-14T09:21:10.508Z,17.19
2016-12-14T09:22:12.836Z,17.19
2016-12-14T09:23:13.834Z,17.19
2016-12-14T09:24:12.829Z,17.20
2016-12-14T09:25:13.772Z,17.20
2016-12-14T09:26:14.059Z,17.20
2016-12-14T09:27:12.486Z,17.20
2016-12-14T09:28:12.703Z,17.20
2016-12-14T09:29:12.131Z,17.20
2016-12-14T09:30:12.886Z,17.20
2016-12-14T09:31:11.247Z,17.19
2016-12-14T09:32:12.667Z,17.20
2016-12-14T09:33:13.690Z,17.21
2016-12-14T09:34:12.064Z,17.21
2016-12-14T09:35:12.327Z,17.21
2016-12-14T09:36:13.329Z,17.21
2016-12-14T09:37:13.188Z,17.20
2016-12-14T09:38:13.353Z,17.21
2016-12-14T09:39:12.596Z,17.21
2016-12-14T09:40:12.536Z,17.20
2016-12-14T09:41:13.579Z,17.21
2016-12-14T09:42:12.667Z,17.20
2016-12-14T09:43:13.627Z,17.20
2016-12-14T09:44:11.933Z,17.21
2016-12-14T09:45:13.462Z,17.21
2016-12-14T09:46:12.466Z,17.21
2016-12-14T09:47:12.629Z,17.21
2016-12-14T09:48:12.553Z,17.28
2016-12-14T09:49:11.617Z,17.21
2016-12-14T09:50:12.165Z,17.71
2016-12-14T09:51:13.169Z,17.75
2016-12-14T09:52:12.491Z,17.76
2016-12-14T09:53:13.183Z,17.77
2016-12-14T09:54:13.374Z,17.77
2016-12-14T09:55:13.187Z,17.67
2016-12-14T09:56:13.852Z,17.28
2016-12-14T09:57:12.318Z,17.26
2016-12-14T09:58:12.784Z,17.25
2016-12-14T09:59:12.332Z,17.24
2016-12-14T10:00:18.884Z,17.23
2016-12-14T10:01:12.318Z,17.23
2016-12-14T10:02:12.666Z,17.23
2016-12-14T10:03:12.207Z,17.24
2016-12-14T10:04:18.879Z,17.23
2016-12-14T10:05:12.265Z,17.23
2016-12-14T10:06:12.961Z,17.23
2016-12-14T10:07:12.874Z,17.23
2016-12-14T10:08:12.353Z,17.23
2016-12-14T10:09:13.282Z,17.23
2016-12-14T10:10:12.867Z,17.23
2016-12-14T10:11:14.197Z,17.23
2016-12-14T10:12:12.856Z,17.23
2016-12-14T10:13:12.402Z,17.24
2016-12-14T10:14:11.607Z,17.24
2016-12-14T10:15:12.782Z,17.24
2016-12-14T10:16:12.072Z,17.23
2016-12-14T10:17:13.004Z,17.24
2016-12-14T10:18:09.756Z,17.24
2016-12-14T10:19:12.725Z,17.24
2016-12-14T10:20:12.163Z,17.25
2016-12-14T10:21:10.457Z,17.24
2016-12-14T10:22:12.360Z,17.25
2016-12-14T10:23:11.456Z,17.24
2016-12-14T10:24:13.176Z,17.73
2016-12-14T10:25:12.666Z,17.77
2016-12-14T10:26:12.947Z,17.78
2016-12-14T10:27:16.006Z,17.30
2016-12-14T10:28:13.774Z,17.28
2016-12-14T10:29:12.997Z,17.27
2016-12-14T10:30:12.378Z,17.26
2016-12-14T10:31:13.212Z,17.26
2016-12-14T10:32:13.127Z,17.26
2016-12-14T10:33:11.465Z,17.25
2016-12-14T10:34:09.968Z,17.75
2016-12-14T10:35:13.723Z,17.41
2016-12-14T10:36:12.534Z,17.32
2016-12-14T10:37:13.128Z,17.34
2016-12-14T10:38:12.746Z,17.31
2016-12-14T10:39:12.055Z,17.28
2016-12-14T10:40:12.716Z,17.28
2016-12-14T10:41:13.876Z,17.27
2016-12-14T10:42:14.926Z,17.27
2016-12-14T10:43:12.760Z,17.34
2016-12-14T10:44:13.413Z,17.30
2016-12-14T10:45:12.666Z,17.27
2016-12-14T10:46:12.744Z,17.27
2016-12-14T10:47:12.040Z,17.28
2016-12-14T10:48:12.327Z,17.28
2016-12-14T10:49:13.327Z,17.29
2016-12-14T10:50:12.577Z,17.28
2016-12-14T10:51:12.064Z,17.28
2016-12-14T10:52:13.184Z,17.28
2016-12-14T10:53:16.153Z,17.29
2016-12-14T10:54:13.005Z,17.29
2016-12-14T10:55:12.396Z,17.30
2016-12-14T10:56:13.104Z,17.29
2016-12-14T10:57:12.486Z,17.29
2016-12-14T10:58:13.224Z,17.29
2016-12-14T10:59:12.649Z,17.30
2016-12-14T11:00:10.122Z,17.28
2016-12-14T11:01:12.364Z,17.29
2016-12-14T11:02:12.655Z,17.29
2016-12-14T11:03:12.523Z,17.30
2016-12-14T11:04:10.197Z,17.28
2016-12-14T11:05:12.940Z,17.29
2016-12-14T11:06:12.857Z,17.28
2016-12-14T11:07:12.894Z,17.28
2016-12-14T11:08:13.026Z,17.29
2016-12-14T11:09:14.918Z,17.28
2016-12-14T11:10:12.469Z,17.28
2016-12-14T11:11:14.445Z,17.31
2016-12-14T11:12:13.447Z,17.29
2016-12-14T11:13:10.085Z,17.28
2016-12-14T11:14:12.969Z,17.29
2016-12-14T11:15:11.128Z,17.28
2016-12-14T11:16:12.573Z,17.78
2016-12-14T11:17:13.659Z,17.82
2016-12-14T11:18:12.583Z,17.83
2016-12-14T11:19:12.072Z,17.84
2016-12-14T11:20:12.499Z,17.50
2016-12-14T11:21:12.724Z,17.35
2016-12-14T11:22:12.508Z,17.32
2016-12-14T11:23:12.790Z,17.30
2016-12-14T11:24:12.930Z,17.30
2016-12-14T11:25:12.485Z,17.30
2016-12-14T11:26:14.560Z,17.29
2016-12-14T11:27:12.389Z,17.29
2016-12-14T11:28:13.225Z,17.28
2016-12-14T11:29:12.543Z,17.29
2016-12-14T11:30:11.981Z,17.28
2016-12-14T11:31:13.147Z,17.29
2016-12-14T11:32:12.293Z,17.29
2016-12-14T11:33:12.882Z,17.34
2016-12-14T11:34:12.394Z,17.29
2016-12-14T11:35:14.087Z,17.29
2016-12-14T11:36:12.674Z,17.29
2016-12-14T11:37:14.659Z,17.30
2016-12-14T11:38:12.316Z,17.30
2016-12-14T11:39:09.861Z,17.29
2016-12-14T11:40:12.986Z,17.31
2016-12-14T11:41:13.548Z,17.29
2016-12-14T11:42:13.512Z,17.29
2016-12-14T11:43:10.086Z,17.28
2016-12-14T11:44:14.068Z,17.29
2016-12-14T11:45:12.456Z,17.28
2016-12-14T11:46:14.430Z,17.28
2016-12-14T11:47:11.644Z,17.28
2016-12-14T11:48:13.482Z,17.77
2016-12-14T11:49:13.258Z,17.52
2016-12-14T11:50:13.159Z,17.33
2016-12-14T11:51:12.480Z,17.30
2016-12-14T11:52:12.746Z,17.29
2016-12-14T11:53:12.610Z,17.29
2016-12-14T11:54:12.034Z,17.28
2016-12-14T11:55:12.924Z,17.28
2016-12-14T11:56:14.242Z,17.28
2016-12-14T11:57:13.108Z,17.32
2016-12-14T11:58:12.617Z,17.28
2016-12-14T11:59:12.471Z,17.29
2016-12-14T12:00:13.098Z,17.29
2016-12-14T12:01:12.458Z,17.29
2016-12-14T12:02:13.471Z,17.29
2016-12-14T12:03:11.175Z,17.29
2016-12-14T12:04:13.124Z,17.78
2016-12-14T12:05:13.318Z,17.82
2016-12-14T12:06:12.911Z,17.83
2016-12-14T12:07:12.911Z,17.56
2016-12-14T12:08:12.354Z,17.35
2016-12-14T12:09:13.400Z,17.33
2016-12-14T12:10:10.141Z,17.31
2016-12-14T12:11:10.320Z,17.30
2016-12-14T12:12:12.039Z,17.30
2016-12-14T12:13:09.900Z,17.30
2016-12-14T12:14:12.359Z,17.30
2016-12-14T12:15:14.178Z,17.30
2016-12-14T12:16:12.376Z,17.30
2016-12-14T12:17:13.191Z,17.30
2016-12-14T12:18:13.986Z,17.30
2016-12-14T12:19:12.526Z,17.30
2016-12-14T12:20:13.371Z,17.30
2016-12-14T12:21:13.119Z,17.34
2016-12-14T12:22:12.991Z,17.79
2016-12-14T12:23:12.888Z,17.83
2016-12-14T12:24:12.749Z,17.85
2016-12-14T12:25:18.087Z,17.86
2016-12-14T12:26:13.295Z,17.86
2016-12-14T12:27:12.698Z,17.86
2016-12-14T12:28:13.929Z,17.87
2016-12-14T12:29:12.434Z,17.86
2016-12-14T12:30:11.418Z,17.87
2016-12-14T12:31:12.117Z,17.87
2016-12-14T12:32:13.031Z,17.54
2016-12-14T12:33:12.431Z,17.38
2016-12-14T12:34:14.340Z,17.34
2016-12-14T12:35:13.486Z,17.33
2016-12-14T12:36:13.162Z,17.32
2016-12-14T12:37:10.455Z,17.31
2016-12-14T12:38:12.637Z,17.32
2016-12-14T12:39:12.891Z,17.31
2016-12-14T12:40:12.662Z,17.32
2016-12-14T12:41:13.141Z,17.31
2016-12-14T12:42:12.980Z,17.31
2016-12-14T12:43:12.861Z,17.31
2016-12-14T12:44:12.987Z,17.30
2016-12-14T12:45:12.469Z,17.32
2016-12-14T12:46:13.105Z,17.36
2016-12-14T12:47:12.365Z,17.31
2016-12-14T12:48:13.019Z,17.35
2016-12-14T12:49:12.392Z,17.32
2016-12-14T12:50:09.809Z,17.31
2016-12-14T12:51:12.947Z,17.32
2016-12-14T12:52:12.419Z,17.31